createdAt,value
2019-02-16T00:01:09.948Z,42.17
2019-02-16T00:06:15.321Z,44.33
2019-02-16T00:11:20.633Z,40.80
2019-02-16T00:16:25.944Z,43.73
2019-02-16T00:21:31.221Z,42.90
2019-02-16T00:26:36.517Z,47.15
2019-02-16T00:31:41.813Z,46.65
2019-02-16T00:36:47.127Z,52.70
2019-02-16T00:41:52.433Z,58.70
2019-02-16T00:46:57.755Z,54.90
2019-02-16T00:52:03.058Z,67.87
2019-02-16T00:57:08.419Z,61.42
2019-02-16T01:02:13.793Z,58.92
2019-02-16T01:07:19.109Z,61.23
2019-02-16T01:12:24.402Z,52.13
2019-02-16T01:17:29.711Z,46.83
2019-02-16T01:22:34.984Z,54.77
2019-02-16T01:27:40.285Z,46.33
2019-02-16T01:32:45.579Z,48.20
2019-02-16T01:37:50.871Z,47.13
2019-02-16T01:42:56.173Z,43.30
2019-02-16T01:48:01.481Z,37.53
2019-02-16T01:53:06.816Z,40.20
2019-02-16T01:58:12.103Z,36.30
2019-02-16T02:03:17.408Z,36.75
2019-02-16T02:08:22.701Z,38.15
2019-02-16T02:13:28.272Z,33.98
2019-02-16T02:18:33.554Z,30.68
2019-02-16T02:23:38.870Z,31.60
2019-02-16T02:28:44.168Z,32.38
2019-02-16T02:33:49.470Z,29.00
2019-02-16T02:38:54.767Z,30.97
2019-02-16T02:44:00.073Z,28.23
2019-02-16T02:49:05.351Z,28.98
2019-02-16T02:54:10.634Z,29.77
2019-02-16T02:59:15.933Z,32.85
2019-02-16T03:04:21.241Z,30.23
2019-02-16T03:09:26.554Z,28.47
2019-02-16T03:14:32.097Z,27.07
2019-02-16T03:19:37.413Z,26.85
2019-02-16T03:24:42.720Z,26.73
2019-02-16T03:29:51.275Z,30.50
2019-02-16T03:35:02.369Z,29.30
2019-02-16T03:40:09.960Z,29.10
2019-02-16T03:45:15.277Z,26.35
2019-02-16T03:50:20.576Z,32.70
2019-02-16T03:55:25.869Z,27.15
2019-02-16T04:00:31.167Z,23.40
2019-02-16T04:05:36.481Z,30.70
2019-02-16T04:10:41.792Z,28.60
2019-02-16T04:15:47.250Z,22.50
2019-02-16T04:20:52.479Z,26.50
2019-02-16T04:25:57.777Z,28.02
2019-02-16T04:31:03.074Z,25.92
2019-02-16T04:36:08.358Z,25.57
2019-02-16T04:41:13.641Z,29.80
2019-02-16T04:46:19.009Z,28.70
2019-02-16T04:51:24.388Z,32.65
2019-02-16T04:56:29.718Z,33.90
2019-02-16T05:01:34.981Z,27.67
2019-02-16T05:06:40.281Z,29.25
2019-02-16T05:11:45.561Z,29.15
2019-02-16T05:16:50.881Z,28.55
2019-02-16T05:21:56.178Z,28.73
2019-02-16T05:27:01.482Z,31.65
2019-02-16T05:32:06.786Z,30.62
2019-02-16T05:37:12.074Z,27.82
2019-02-16T05:42:18.380Z,26.90
2019-02-16T05:47:23.673Z,27.42
2019-02-16T05:52:29.090Z,26.15
2019-02-16T05:57:34.339Z,25.60
2019-02-16T06:02:39.630Z,27.40
2019-02-16T06:07:44.933Z,26.07
2019-02-16T06:12:50.221Z,24.82
2019-02-16T06:17:55.505Z,21.35
2019-02-16T06:23:04.469Z,20.20
2019-02-16T06:28:07.785Z,18.92
2019-02-16T06:33:13.085Z,19.82
2019-02-16T06:38:18.383Z,20.25
2019-02-16T06:43:23.666Z,18.62
2019-02-16T06:48:28.964Z,21.20
2019-02-16T06:53:34.250Z,21.23
2019-02-16T06:58:39.559Z,19.87
2019-02-16T07:03:44.921Z,21.45
2019-02-16T07:08:50.222Z,22.07
2019-02-16T07:13:55.504Z,21.77
2019-02-16T07:19:05.334Z,20.15
2019-02-16T07:24:11.926Z,21.25
2019-02-16T07:29:17.222Z,21.97
2019-02-16T07:34:22.919Z,22.93
2019-02-16T07:39:28.261Z,25.23
2019-02-16T07:44:37.914Z,23.10
2019-02-16T07:49:56.699Z,25.32
2019-02-16T07:55:04.003Z,22.62
2019-02-16T08:00:10.933Z,23.87
2019-02-16T08:05:36.121Z,22.27
2019-02-16T08:10:59.277Z,23.12
2019-02-16T08:16:06.232Z,19.80
2019-02-16T08:21:19.188Z,20.27
2019-02-16T08:26:26.126Z,19.15
2019-02-16T08:31:38.662Z,19.50
2019-02-16T08:36:54.687Z,17.55
2019-02-16T08:42:01.628Z,18.62
2019-02-16T08:47:17.269Z,19.98
2019-02-16T08:52:26.884Z,19.10
2019-02-16T08:57:42.852Z,20.50
2019-02-16T09:20:18.485Z,18.92
2019-02-16T09:25:31.163Z,22.05
2019-02-16T09:30:38.114Z,20.50
2019-02-16T09:35:45.075Z,23.00
2019-02-16T09:40:54.774Z,22.58
2019-02-16T09:46:01.736Z,20.52
2019-02-16T09:51:11.721Z,21.07
2019-02-16T09:56:18.648Z,22.55
2019-02-16T10:01:28.568Z,24.27
2019-02-16T10:06:50.608Z,24.85
2019-02-16T10:11:57.548Z,26.50
2019-02-16T10:17:08.543Z,26.75
2019-02-16T10:22:16.262Z,27.32
2019-02-16T10:27:26.267Z,30.77
2019-02-16T10:32:35.924Z,29.63
2019-02-16T10:37:42.969Z,32.70
2019-02-16T10:42:49.919Z,27.45
2019-02-16T10:47:56.919Z,30.23
2019-02-16T10:53:03.916Z,29.80
2019-02-16T10:58:10.881Z,28.60
2019-02-16T11:03:25.458Z,28.80
2019-02-16T11:08:32.522Z,28.70
2019-02-16T11:13:44.335Z,28.27
2019-02-16T11:18:57.020Z,27.62
2019-02-16T11:24:03.954Z,28.42
2019-02-16T11:29:11.250Z,25.37
2019-02-16T11:34:25.144Z,23.92
2019-02-16T11:39:47.110Z,23.70
2019-02-16T11:44:59.789Z,23.40
2019-02-16T11:50:08.591Z,24.30
2019-02-16T11:55:16.698Z,21.52
2019-02-16T12:00:37.188Z,24.32
2019-02-16T12:05:46.969Z,21.20
2019-02-16T12:11:00.282Z,22.50
2019-02-16T12:16:19.330Z,22.13
2019-02-16T12:21:38.609Z,18.73
2019-02-16T12:27:01.867Z,17.55
2019-02-16T12:32:11.970Z,17.02
2019-02-16T12:37:18.908Z,13.90
2019-02-16T12:42:37.758Z,14.00
2019-02-16T12:47:47.188Z,15.35
2019-02-16T12:52:54.117Z,14.80
2019-02-16T12:58:01.069Z,14.38
2019-02-16T13:03:24.237Z,13.62
2019-02-16T13:08:47.661Z,12.98
2019-02-16T13:14:00.795Z,12.45
2019-02-16T13:19:07.722Z,11.85
2019-02-16T13:24:20.268Z,9.75
2019-02-16T13:29:36.433Z,10.72
2019-02-16T13:34:46.612Z,9.35
2019-02-16T13:40:05.666Z,10.55
2019-02-16T13:45:18.322Z,11.28
2019-02-16T13:50:25.268Z,10.88
2019-02-16T13:55:48.728Z,10.88
2019-02-16T14:00:55.694Z,11.12
2019-02-16T14:06:14.445Z,12.33
2019-02-16T14:11:21.396Z,12.45
2019-02-16T14:16:31.623Z,10.98
2019-02-16T14:21:36.972Z,13.03
2019-02-16T14:26:42.292Z,13.62
2019-02-16T14:31:47.598Z,14.80
2019-02-16T14:36:52.929Z,14.25
2019-02-16T14:41:58.330Z,14.25
2019-02-16T14:47:03.593Z,15.68
2019-02-16T14:52:08.902Z,18.67
2019-02-16T14:57:14.228Z,20.27
2019-02-16T15:02:19.534Z,15.20
2019-02-16T15:07:24.835Z,14.75
2019-02-16T15:12:30.157Z,15.83
2019-02-16T15:17:35.474Z,17.07
2019-02-16T15:22:40.843Z,20.00
2019-02-16T15:27:46.152Z,15.10
2019-02-16T15:32:51.433Z,17.73
2019-02-16T15:37:57.702Z,15.20
2019-02-16T15:43:02.997Z,15.70
2019-02-16T15:48:08.305Z,20.15
2019-02-16T15:53:13.632Z,44.58
2019-02-16T15:58:18.935Z,41.45
2019-02-16T16:03:24.273Z,33.35
2019-02-16T16:08:43.144Z,25.50
2019-02-16T16:13:50.067Z,46.95
2019-02-16T16:18:57.013Z,26.33
2019-02-16T16:24:03.990Z,27.70
2019-02-16T16:29:27.334Z,32.88
2019-02-16T16:34:34.335Z,20.57
2019-02-16T16:39:57.525Z,22.17
2019-02-16T16:45:04.479Z,24.72
2019-02-16T16:50:20.401Z,27.70
2019-02-16T16:55:27.404Z,25.65
2019-02-16T17:00:36.986Z,30.68
2019-02-16T17:05:59.885Z,37.17
2019-02-16T17:11:07.015Z,35.10
2019-02-16T17:16:16.913Z,36.10
2019-02-16T17:21:23.973Z,34.00
2019-02-16T17:26:38.020Z,34.20
2019-02-16T17:31:45.216Z,35.13
2019-02-16T17:36:55.131Z,38.53
2019-02-16T17:42:02.125Z,40.92
2019-02-16T17:47:24.130Z,39.38
2019-02-16T17:52:31.118Z,36.93
2019-02-16T17:57:38.073Z,38.38
2019-02-16T18:02:48.125Z,40.58
2019-02-16T18:08:11.373Z,43.08
2019-02-16T18:13:19.273Z,39.20
2019-02-16T18:18:32.295Z,41.50
2019-02-16T18:23:44.970Z,41.90
2019-02-16T18:28:57.344Z,43.28
2019-02-16T18:34:06.336Z,44.55
2019-02-16T18:39:15.985Z,45.50
2019-02-16T18:44:41.806Z,47.23
2019-02-16T18:50:14.478Z,53.33
2019-02-16T18:55:38.092Z,55.35
2019-02-16T19:00:48.364Z,60.23
2019-02-16T19:06:01.101Z,56.77
2019-02-16T19:11:16.998Z,54.25
2019-02-16T19:16:23.974Z,50.28
2019-02-16T19:21:31.005Z,51.40
2019-02-16T19:26:43.715Z,51.80
2019-02-16T19:32:02.459Z,50.45
2019-02-16T19:37:09.456Z,52.93
2019-02-16T19:42:16.652Z,48.65
2019-02-16T19:47:32.640Z,41.37
2019-02-16T19:52:39.577Z,40.03
2019-02-16T19:57:46.601Z,40.10
2019-02-16T20:02:53.557Z,38.08
2019-02-16T20:08:00.509Z,32.85
2019-02-16T20:13:13.426Z,35.73
2019-02-16T20:18:29.377Z,35.03
2019-02-16T20:23:42.374Z,34.45
2019-02-16T20:28:55.009Z,31.77
2019-02-16T20:34:07.808Z,33.55
2019-02-16T20:39:31.490Z,31.23
2019-02-16T20:44:38.738Z,32.80
2019-02-16T20:49:45.834Z,33.02
2019-02-16T20:54:55.804Z,32.10
2019-02-16T21:00:02.729Z,28.75
2019-02-16T21:05:12.446Z,28.67
2019-02-16T21:10:34.410Z,28.15
2019-02-16T21:15:59.444Z,29.52
2019-02-16T21:21:22.917Z,28.55
2019-02-16T21:26:45.093Z,34.05
2019-02-16T21:31:52.127Z,52.20
2019-02-16T21:37:15.570Z,61.77
2019-02-16T21:42:25.176Z,57.88
2019-02-16T21:47:32.141Z,50.70
2019-02-16T21:52:45.043Z,38.63
2019-02-16T21:58:10.095Z,30.57
2019-02-16T22:03:19.571Z,32.93
2019-02-16T22:08:26.508Z,31.15
2019-02-16T22:13:31.809Z,29.72
2019-02-16T22:18:38.185Z,31.50
2019-02-16T22:23:43.485Z,30.88
2019-02-16T22:28:48.796Z,29.70
2019-02-16T22:33:54.100Z,29.98
2019-02-16T22:38:59.444Z,29.42
2019-02-16T22:44:04.759Z,27.25
2019-02-16T22:49:10.052Z,25.27
2019-02-16T22:54:15.417Z,25.45
2019-02-16T22:59:20.842Z,25.70
2019-02-16T23:04:27.512Z,23.20
2019-02-16T23:09:33.027Z,24.18
2019-02-16T23:14:38.311Z,25.65
2019-02-16T23:19:43.631Z,23.15
2019-02-16T23:24:48.929Z,24.72
2019-02-16T23:29:54.814Z,25.45
2019-02-16T23:35:01.570Z,24.23
2019-02-16T23:40:08.600Z,24.18
2019-02-16T23:45:13.920Z,25.00
2019-02-16T23:50:19.362Z,26.00
2019-02-16T23:55:24.681Z,28.52
